International Virtual Aviation Organisation

Russian Federation and Kazakhstan MCD

 

Карточка аэропорта UUWW

Внимание!
Информация на этой странице в стадии наполнения.
Если вы не увидели какой-то информации, или заметили неточность - пожалуйста сообщите нам!
Спасибо!
Команда RU-STAFF
Название аэропортаВнуково
Название аэропорта (англ.)Vnukovo
Превышение686 ft. (209.1 m.)
Координаты55°35.952', 37°16.386'
Высота перехода1200 m
Эшелон переходаBy ATC
Коды ответчика2101-2117
Зона ОрВДМосква РПИ (UUWV)
Данные METARUUWW 212030Z 19004MPS CAVOK 17/09 Q1015 R24/000070 NOSIG
Проноз погоды (TAF)UUWW 211955Z 2121/2221 19003MPS 9999 SCT040 TX27/2212Z TN13/2202Z BECMG 2205/2207 24008MPS TEMPO 2209/2221 27008G13MPS 3100 -SHRA SCT030CB PROB40 TEMPO 2209/2221 -TSRA SCT020CB
NOTAMshow/hide NOTAM
AWOS   TABLE

Информация о ВПП

ВПП Длина ВПП (м.) Покрытие Курс ВПП Частота ILS
013060Бетон13111.7
193060Бетон193111.5
063500Бетон58108.9
243500Бетон238111.1

Диспетчерские позиции

Позывной Наименование органа УВД Частота
UUWW_TWRВнуково-Старт/Посадка118.300
UUWW_R_APPВнуково-Круг126.000
UUWW_GNDВнуково-Руление120.450
UUWW_DELВнуково-Деливери131.800



Спутниковое изображение